sensor_id;sensor_type;location;lat;lon;timestamp;temperature;humidity
3736;DHT22;1883;48.202;16.310;2023-04-03T01:25:45;5.10;65.20
3736;DHT22;1883;48.202;16.310;2023-04-03T01:28:15;5.10;65.30
3736;DHT22;1883;48.202;16.310;2023-04-03T01:30:45;5.10;65.30
3736;DHT22;1883;48.202;16.310;2023-04-03T01:33:15;5.00;65.10
3736;DHT22;1883;48.202;16.310;2023-04-03T01:35:41;5.00;65.10
3736;DHT22;1883;48.202;16.310;2023-04-03T01:38:08;5.00;65.20
3736;DHT22;1883;48.202;16.310;2023-04-03T01:40:36;5.10;65.20
3736;DHT22;1883;48.202;16.310;2023-04-03T01:43:03;5.00;65.10
3736;DHT22;1883;48.202;16.310;2023-04-03T01:45:30;5.00;65.10
3736;DHT22;1883;48.202;16.310;2023-04-03T01:47:57;5.00;65.10
3736;DHT22;1883;48.202;16.310;2023-04-03T01:50:25;5.00;65.00
3736;DHT22;1883;48.202;16.310;2023-04-03T01:52:52;5.00;65.00
3736;DHT22;1883;48.202;16.310;2023-04-03T01:55:19;5.00;65.00
3736;DHT22;1883;48.202;16.310;2023-04-03T01:57:46;5.00;65.10
3736;DHT22;1883;48.202;16.310;2023-04-03T02:00:14;5.00;65.00
3736;DHT22;1883;48.202;16.310;2023-04-03T02:02:42;5.00;65.10
3736;DHT22;1883;48.202;16.310;2023-04-03T02:05:09;4.90;65.00
3736;DHT22;1883;48.202;16.310;2023-04-03T02:07:37;5.00;65.00
3736;DHT22;1883;48.202;16.310;2023-04-03T02:10:05;5.00;65.00
3736;DHT22;1883;48.202;16.310;2023-04-03T02:12:33;4.90;65.00
3736;DHT22;1883;48.202;16.310;2023-04-03T02:15:00;4.90;65.00
3736;DHT22;1883;48.202;16.310;2023-04-03T02:17:27;4.90;64.90
3736;DHT22;1883;48.202;16.310;2023-04-03T02:19:54;4.90;64.90
3736;DHT22;1883;48.202;16.310;2023-04-03T02:22:21;4.90;64.80
3736;DHT22;1883;48.202;16.310;2023-04-03T02:24:49;4.90;64.80
3736;DHT22;1883;48.202;16.310;2023-04-03T02:27:17;4.90;64.60
3736;DHT22;1883;48.202;16.310;2023-04-03T02:29:44;4.90;64.70
3736;DHT22;1883;48.202;16.310;2023-04-03T02:32:11;4.90;64.70
3736;DHT22;1883;48.202;16.310;2023-04-03T02:34:38;4.90;64.70
3736;DHT22;1883;48.202;16.310;2023-04-03T02:37:05;4.90;64.70
3736;DHT22;1883;48.202;16.310;2023-04-03T02:39:32;4.90;64.70
3736;DHT22;1883;48.202;16.310;2023-04-03T02:42:01;5.00;64.70
3736;DHT22;1883;48.202;16.310;2023-04-03T02:44:28;4.90;64.70
3736;DHT22;1883;48.202;16.310;2023-04-03T02:46:55;4.90;64.70
3736;DHT22;1883;48.202;16.310;2023-04-03T02:49:22;4.90;64.70
3736;DHT22;1883;48.202;16.310;2023-04-03T02:51:49;4.90;64.60
3736;DHT22;1883;48.202;16.310;2023-04-03T02:54:16;4.80;64.60
3736;DHT22;1883;48.202;16.310;2023-04-03T03:30:21;4.80;64.90
3736;DHT22;1883;48.202;16.310;2023-04-03T03:35:24;4.80;64.90
3736;DHT22;1883;48.202;16.310;2023-04-03T03:45:39;4.80;64.80
3736;DHT22;1883;48.202;16.310;2023-04-03T03:56:33;4.80;64.80
3736;DHT22;1883;48.202;16.310;2023-04-03T03:59:00;4.80;64.90
3736;DHT22;1883;48.202;16.310;2023-04-03T23:41:56;2.10;71.40
3736;DHT22;1883;48.202;16.310;2023-04-03T23:49:34;2.10;71.60
3736;DHT22;1883;48.202;16.310;2023-04-03T23:52:01;2.00;71.60
3736;DHT22;1883;48.202;16.310;2023-04-03T23:54:28;2.00;71.50
3736;DHT22;1883;48.202;16.310;2023-04-03T23:56:57;2.00;71.40
3736;DHT22;1883;48.202;16.310;2023-04-03T23:59:25;2.00;71.40
